sensor_id;sensor_type;location;lat;lon;timestamp;temperature;humidity
1678;DHT22;6034;46.864;15.216;2023-07-16T06:15:47;26.70;99.90
1678;DHT22;6034;46.864;15.216;2023-07-16T06:18:14;27.00;99.90
1678;DHT22;6034;46.864;15.216;2023-07-16T06:20:43;27.20;99.90
1678;DHT22;6034;46.864;15.216;2023-07-16T06:23:11;27.30;99.90
1678;DHT22;6034;46.864;15.216;2023-07-16T06:25:38;27.30;99.90
1678;DHT22;6034;46.864;15.216;2023-07-16T06:28:06;27.20;99.90
1678;DHT22;6034;46.864;15.216;2023-07-16T06:30:33;27.50;99.90
1678;DHT22;6034;46.864;15.216;2023-07-16T06:33:02;27.50;99.90
1678;DHT22;6034;46.864;15.216;2023-07-16T06:35:29;27.60;99.90
1678;DHT22;6034;46.864;15.216;2023-07-16T06:37:57;27.70;99.90
1678;DHT22;6034;46.864;15.216;2023-07-16T06:40:25;27.70;99.90
1678;DHT22;6034;46.864;15.216;2023-07-16T06:42:54;27.80;99.90
1678;DHT22;6034;46.864;15.216;2023-07-16T06:45:21;27.90;99.90
1678;DHT22;6034;46.864;15.216;2023-07-16T06:47:48;28.10;99.90
1678;DHT22;6034;46.864;15.216;2023-07-16T06:50:17;28.20;99.90
1678;DHT22;6034;46.864;15.216;2023-07-16T06:52:45;28.20;99.90
1678;DHT22;6034;46.864;15.216;2023-07-16T06:55:12;28.30;99.90
1678;DHT22;6034;46.864;15.216;2023-07-16T06:57:39;28.50;99.90
1678;DHT22;6034;46.864;15.216;2023-07-16T07:00:08;28.50;99.90
1678;DHT22;6034;46.864;15.216;2023-07-16T07:02:37;28.60;99.90
1678;DHT22;6034;46.864;15.216;2023-07-16T07:05:05;28.70;99.90
1678;DHT22;6034;46.864;15.216;2023-07-16T07:07:34;28.70;99.90
1678;DHT22;6034;46.864;15.216;2023-07-16T07:10:02;28.80;99.90
1678;DHT22;6034;46.864;15.216;2023-07-16T07:12:29;28.80;99.90
1678;DHT22;6034;46.864;15.216;2023-07-16T07:15:00;28.80;99.90
1678;DHT22;6034;46.864;15.216;2023-07-16T07:17:28;28.60;99.90
1678;DHT22;6034;46.864;15.216;2023-07-16T07:19:55;28.90;99.90
1678;DHT22;6034;46.864;15.216;2023-07-16T07:22:22;28.90;99.90
1678;DHT22;6034;46.864;15.216;2023-07-16T07:24:55;28.90;99.90
1678;DHT22;6034;46.864;15.216;2023-07-16T07:27:23;28.80;99.90
1678;DHT22;6034;46.864;15.216;2023-07-16T07:29:50;28.90;99.90
1678;DHT22;6034;46.864;15.216;2023-07-16T07:32:19;29.00;99.90
1678;DHT22;6034;46.864;15.216;2023-07-16T07:34:47;29.20;99.90
1678;DHT22;6034;46.864;15.216;2023-07-16T07:37:14;29.20;99.90
1678;DHT22;6034;46.864;15.216;2023-07-16T07:39:41;29.30;99.90
1678;DHT22;6034;46.864;15.216;2023-07-16T07:42:10;29.40;99.90
1678;DHT22;6034;46.864;15.216;2023-07-16T07:44:38;29.30;99.90
1678;DHT22;6034;46.864;15.216;2023-07-16T07:47:05;29.40;99.90
1678;DHT22;6034;46.864;15.216;2023-07-16T07:49:34;29.30;99.90
1678;DHT22;6034;46.864;15.216;2023-07-16T07:52:01;29.30;99.90
1678;DHT22;6034;46.864;15.216;2023-07-16T07:54:31;29.40;99.90
1678;DHT22;6034;46.864;15.216;2023-07-16T07:57:01;29.50;99.90
1678;DHT22;6034;46.864;15.216;2023-07-16T07:59:31;29.60;99.90
1678;DHT22;6034;46.864;15.216;2023-07-16T08:01:59;29.70;99.90
1678;DHT22;6034;46.864;15.216;2023-07-16T08:04:27;29.60;99.90
1678;DHT22;6034;46.864;15.216;2023-07-16T08:06:55;29.70;99.90
1678;DHT22;6034;46.864;15.216;2023-07-16T08:09:22;29.60;99.90
1678;DHT22;6034;46.864;15.216;2023-07-16T08:11:50;29.60;99.90
1678;DHT22;6034;46.864;15.216;2023-07-16T08:14:17;29.70;99.90
1678;DHT22;6034;46.864;15.216;2023-07-16T08:16:47;29.30;99.90
1678;DHT22;6034;46.864;15.216;2023-07-16T08:19:14;29.60;99.90
1678;DHT22;6034;46.864;15.216;2023-07-16T08:21:41;29.60;99.90
1678;DHT22;6034;46.864;15.216;2023-07-16T08:24:09;29.70;99.90
1678;DHT22;6034;46.864;15.216;2023-07-16T08:26:36;29.70;99.90
1678;DHT22;6034;46.864;15.216;2023-07-16T08:29:04;29.80;99.90
1678;DHT22;6034;46.864;15.216;2023-07-16T08:31:32;30.00;99.90
1678;DHT22;6034;46.864;15.216;2023-07-16T08:34:02;30.10;99.90
1678;DHT22;6034;46.864;15.216;2023-07-16T08:36:29;30.00;99.90
1678;DHT22;6034;46.864;15.216;2023-07-16T08:38:56;30.10;99.90
1678;DHT22;6034;46.864;15.216;2023-07-16T08:41:24;30.10;99.90
1678;DHT22;6034;46.864;15.216;2023-07-16T08:43:52;29.70;99.90
1678;DHT22;6034;46.864;15.216;2023-07-16T08:46:20;30.00;99.90
1678;DHT22;6034;46.864;15.216;2023-07-16T08:48:48;30.20;99.90
1678;DHT22;6034;46.864;15.216;2023-07-16T08:51:17;30.00;99.90
1678;DHT22;6034;46.864;15.216;2023-07-16T08:53:48;30.30;99.90
1678;DHT22;6034;46.864;15.216;2023-07-16T08:56:16;30.00;99.90
1678;DHT22;6034;46.864;15.216;2023-07-16T08:58:43;29.80;99.90
1678;DHT22;6034;46.864;15.216;2023-07-16T09:01:12;29.70;99.90
1678;DHT22;6034;46.864;15.216;2023-07-16T09:03:39;30.10;99.90
1678;DHT22;6034;46.864;15.216;2023-07-16T09:06:07;30.30;99.90
1678;DHT22;6034;46.864;15.216;2023-07-16T09:08:36;30.30;99.90
1678;DHT22;6034;46.864;15.216;2023-07-16T09:11:04;30.50;99.90
1678;DHT22;6034;46.864;15.216;2023-07-16T09:13:31;30.60;99.90
1678;DHT22;6034;46.864;15.216;2023-07-16T09:15:59;30.60;99.90
1678;DHT22;6034;46.864;15.216;2023-07-16T09:18:27;30.80;99.90
1678;DHT22;6034;46.864;15.216;2023-07-16T09:20:55;30.80;99.90
1678;DHT22;6034;46.864;15.216;2023-07-16T09:23:24;30.80;99.90
1678;DHT22;6034;46.864;15.216;2023-07-16T09:25:55;30.80;99.90
1678;DHT22;6034;46.864;15.216;2023-07-16T09:28:23;31.00;99.90
1678;DHT22;6034;46.864;15.216;2023-07-16T09:30:50;31.10;99.90
1678;DHT22;6034;46.864;15.216;2023-07-16T09:33:20;31.00;99.90
1678;DHT22;6034;46.864;15.216;2023-07-16T09:35:48;30.60;99.90
1678;DHT22;6034;46.864;15.216;2023-07-16T09:38:16;30.90;99.90
1678;DHT22;6034;46.864;15.216;2023-07-16T09:40:44;30.90;99.90
1678;DHT22;6034;46.864;15.216;2023-07-16T09:43:13;31.00;99.90
1678;DHT22;6034;46.864;15.216;2023-07-16T09:45:43;31.10;99.90
1678;DHT22;6034;46.864;15.216;2023-07-16T09:48:10;31.20;99.90
1678;DHT22;6034;46.864;15.216;2023-07-16T09:50:38;30.90;99.90
1678;DHT22;6034;46.864;15.216;2023-07-16T09:53:08;30.90;99.90
1678;DHT22;6034;46.864;15.216;2023-07-16T09:55:36;31.00;99.90
1678;DHT22;6034;46.864;15.216;2023-07-16T09:58:08;31.10;99.90
1678;DHT22;6034;46.864;15.216;2023-07-16T10:00:39;30.60;99.70
1678;DHT22;6034;46.864;15.216;2023-07-16T10:03:08;30.40;98.00
1678;DHT22;6034;46.864;15.216;2023-07-16T10:05:37;30.80;99.90
1678;DHT22;6034;46.864;15.216;2023-07-16T10:08:14;30.30;97.50
1678;DHT22;6034;46.864;15.216;2023-07-16T10:10:43;30.70;99.60
1678;DHT22;6034;46.864;15.216;2023-07-16T10:13:12;31.00;99.90
1678;DHT22;6034;46.864;15.216;2023-07-16T10:15:51;31.00;99.90
1678;DHT22;6034;46.864;15.216;2023-07-16T10:18:24;30.90;99.90
1678;DHT22;6034;46.864;15.216;2023-07-16T10:20:53;31.00;99.90
1678;DHT22;6034;46.864;15.216;2023-07-16T10:23:20;30.90;99.90
1678;DHT22;6034;46.864;15.216;2023-07-16T10:26:06;30.90;99.90
1678;DHT22;6034;46.864;15.216;2023-07-16T10:28:35;31.00;99.90
1678;DHT22;6034;46.864;15.216;2023-07-16T10:31:04;31.00;99.90
1678;DHT22;6034;46.864;15.216;2023-07-16T10:33:33;31.00;99.90
1678;DHT22;6034;46.864;15.216;2023-07-16T10:36:03;31.30;99.90
1678;DHT22;6034;46.864;15.216;2023-07-16T10:38:40;31.50;99.90
1678;DHT22;6034;46.864;15.216;2023-07-16T10:41:09;31.60;99.90
1678;DHT22;6034;46.864;15.216;2023-07-16T10:43:36;31.80;99.90
1678;DHT22;6034;46.864;15.216;2023-07-16T10:46:05;31.90;99.90
1678;DHT22;6034;46.864;15.216;2023-07-16T10:48:33;31.90;98.80
1678;DHT22;6034;46.864;15.216;2023-07-16T10:51:00;31.60;99.90
1678;DHT22;6034;46.864;15.216;2023-07-16T10:53:28;31.60;98.90
1678;DHT22;6034;46.864;15.216;2023-07-16T10:55:58;31.30;99.50
1678;DHT22;6034;46.864;15.216;2023-07-16T10:58:27;31.60;99.90
1678;DHT22;6034;46.864;15.216;2023-07-16T11:00:54;31.30;99.90
1678;DHT22;6034;46.864;15.216;2023-07-16T11:03:24;31.10;99.60
1678;DHT22;6034;46.864;15.216;2023-07-16T11:05:51;30.50;99.10
1678;DHT22;6034;46.864;15.216;2023-07-16T11:08:22;30.80;99.90
1678;DHT22;6034;46.864;15.216;2023-07-16T11:10:54;30.70;98.40
1678;DHT22;6034;46.864;15.216;2023-07-16T11:13:25;31.30;99.50
1678;DHT22;6034;46.864;15.216;2023-07-16T11:15:53;31.60;99.90
1678;DHT22;6034;46.864;15.216;2023-07-16T11:18:23;31.80;99.40
1678;DHT22;6034;46.864;15.216;2023-07-16T11:20:52;31.90;99.90
1678;DHT22;6034;46.864;15.216;2023-07-16T11:23:19;31.90;99.90
1678;DHT22;6034;46.864;15.216;2023-07-16T11:25:47;31.80;99.90
1678;DHT22;6034;46.864;15.216;2023-07-16T11:28:15;31.90;99.90
1678;DHT22;6034;46.864;15.216;2023-07-16T11:30:42;31.90;99.10
1678;DHT22;6034;46.864;15.216;2023-07-16T11:33:11;32.10;98.50
1678;DHT22;6034;46.864;15.216;2023-07-16T11:35:40;32.00;97.30
1678;DHT22;6034;46.864;15.216;2023-07-16T11:38:07;32.00;97.80
1678;DHT22;6034;46.864;15.216;2023-07-16T11:40:35;32.10;98.70
1678;DHT22;6034;46.864;15.216;2023-07-16T11:43:09;31.70;99.50
1678;DHT22;6034;46.864;15.216;2023-07-16T11:45:37;32.10;99.50
1678;DHT22;6034;46.864;15.216;2023-07-16T11:48:05;32.00;99.90
1678;DHT22;6034;46.864;15.216;2023-07-16T11:50:33;32.00;98.20
1678;DHT22;6034;46.864;15.216;2023-07-16T11:53:02;32.20;99.10
1678;DHT22;6034;46.864;15.216;2023-07-16T11:55:29;32.30;98.40
1678;DHT22;6034;46.864;15.216;2023-07-16T11:57:57;32.40;97.90
1678;DHT22;6034;46.864;15.216;2023-07-16T12:00:25;32.50;97.00
1678;DHT22;6034;46.864;15.216;2023-07-16T12:02:52;32.40;98.90
1678;DHT22;6034;46.864;15.216;2023-07-16T12:05:21;32.30;95.10
1678;DHT22;6034;46.864;15.216;2023-07-16T12:07:50;32.30;98.00
1678;DHT22;6034;46.864;15.216;2023-07-16T12:10:18;32.30;98.40
1678;DHT22;6034;46.864;15.216;2023-07-16T12:12:46;32.40;99.00
1678;DHT22;6034;46.864;15.216;2023-07-16T12:15:14;32.70;99.40
1678;DHT22;6034;46.864;15.216;2023-07-16T12:17:41;32.70;98.00
1678;DHT22;6034;46.864;15.216;2023-07-16T12:20:09;32.70;99.90
1678;DHT22;6034;46.864;15.216;2023-07-16T12:22:36;32.80;99.90
1678;DHT22;6034;46.864;15.216;2023-07-16T12:25:05;32.30;99.90
1678;DHT22;6034;46.864;15.216;2023-07-16T12:27:34;32.30;99.90
1678;DHT22;6034;46.864;15.216;2023-07-16T12:30:01;31.80;98.90
1678;DHT22;6034;46.864;15.216;2023-07-16T12:32:29;31.90;99.90
1678;DHT22;6034;46.864;15.216;2023-07-16T12:34:56;31.90;99.90
1678;DHT22;6034;46.864;15.216;2023-07-16T12:37:26;32.00;99.70
1678;DHT22;6034;46.864;15.216;2023-07-16T12:39:53;32.30;99.90
1678;DHT22;6034;46.864;15.216;2023-07-16T12:42:21;32.20;99.90
1678;DHT22;6034;46.864;15.216;2023-07-16T12:44:49;32.20;99.90
1678;DHT22;6034;46.864;15.216;2023-07-16T12:47:17;32.30;99.90
1678;DHT22;6034;46.864;15.216;2023-07-16T12:49:44;32.20;99.80
1678;DHT22;6034;46.864;15.216;2023-07-16T12:52:12;32.20;99.90
1678;DHT22;6034;46.864;15.216;2023-07-16T12:54:39;31.00;98.10
1678;DHT22;6034;46.864;15.216;2023-07-16T12:57:07;31.50;99.90
1678;DHT22;6034;46.864;15.216;2023-07-16T12:59:35;31.80;99.90
1678;DHT22;6034;46.864;15.216;2023-07-16T13:02:04;32.00;98.90
1678;DHT22;6034;46.864;15.216;2023-07-16T13:04:32;32.20;99.90
1678;DHT22;6034;46.864;15.216;2023-07-16T13:07:00;32.30;99.90
1678;DHT22;6034;46.864;15.216;2023-07-16T13:09:28;31.90;99.50
1678;DHT22;6034;46.864;15.216;2023-07-16T13:11:56;31.90;98.10
1678;DHT22;6034;46.864;15.216;2023-07-16T13:17:04;32.00;98.00
1678;DHT22;6034;46.864;15.216;2023-07-16T13:19:33;32.20;99.40
1678;DHT22;6034;46.864;15.216;2023-07-16T13:22:03;31.90;99.60
1678;DHT22;6034;46.864;15.216;2023-07-16T13:24:31;32.10;99.20
1678;DHT22;6034;46.864;15.216;2023-07-16T13:26:59;32.00;97.10
1678;DHT22;6034;46.864;15.216;2023-07-16T13:29:28;32.00;98.50
1678;DHT22;6034;46.864;15.216;2023-07-16T13:31:56;32.00;98.50
1678;DHT22;6034;46.864;15.216;2023-07-16T13:34:27;31.70;97.60
1678;DHT22;6034;46.864;15.216;2023-07-16T13:36:55;31.70;98.00
1678;DHT22;6034;46.864;15.216;2023-07-16T13:39:23;31.70;98.70
1678;DHT22;6034;46.864;15.216;2023-07-16T13:41:51;31.50;97.90
1678;DHT22;6034;46.864;15.216;2023-07-16T13:44:20;31.80;98.70
1678;DHT22;6034;46.864;15.216;2023-07-16T13:46:47;31.70;99.40
1678;DHT22;6034;46.864;15.216;2023-07-16T13:49:15;31.60;99.90
1678;DHT22;6034;46.864;15.216;2023-07-16T13:51:45;31.60;99.90
1678;DHT22;6034;46.864;15.216;2023-07-16T13:54:13;31.70;99.90
1678;DHT22;6034;46.864;15.216;2023-07-16T13:56:42;31.80;99.90
1678;DHT22;6034;46.864;15.216;2023-07-16T13:59:12;31.90;99.90
1678;DHT22;6034;46.864;15.216;2023-07-16T14:01:44;31.90;99.90
1678;DHT22;6034;46.864;15.216;2023-07-16T14:04:13;31.80;99.90
1678;DHT22;6034;46.864;15.216;2023-07-16T14:06:41;31.80;99.90
1678;DHT22;6034;46.864;15.216;2023-07-16T14:09:11;31.80;99.90
1678;DHT22;6034;46.864;15.216;2023-07-16T14:11:40;31.90;99.90
1678;DHT22;6034;46.864;15.216;2023-07-16T14:14:10;31.90;99.90
1678;DHT22;6034;46.864;15.216;2023-07-16T14:16:38;31.90;99.90
1678;DHT22;6034;46.864;15.216;2023-07-16T14:19:05;31.90;99.70
1678;DHT22;6034;46.864;15.216;2023-07-16T14:21:36;31.70;99.90
1678;DHT22;6034;46.864;15.216;2023-07-16T14:24:05;31.70;99.90
1678;DHT22;6034;46.864;15.216;2023-07-16T14:26:37;31.60;99.90
1678;DHT22;6034;46.864;15.216;2023-07-16T14:29:05;31.60;99.90
1678;DHT22;6034;46.864;15.216;2023-07-16T14:31:33;31.60;99.90
1678;DHT22;6034;46.864;15.216;2023-07-16T14:34:02;31.70;99.90
1678;DHT22;6034;46.864;15.216;2023-07-16T14:36:29;31.70;99.90
1678;DHT22;6034;46.864;15.216;2023-07-16T14:38:58;31.60;99.90
1678;DHT22;6034;46.864;15.216;2023-07-16T14:41:26;31.40;99.90
1678;DHT22;6034;46.864;15.216;2023-07-16T14:43:57;31.30;99.90
1678;DHT22;6034;46.864;15.216;2023-07-16T14:46:25;31.00;98.80
1678;DHT22;6034;46.864;15.216;2023-07-16T14:48:53;31.00;99.70
1678;DHT22;6034;46.864;15.216;2023-07-16T14:51:22;31.00;99.90
1678;DHT22;6034;46.864;15.216;2023-07-16T14:53:51;30.90;99.90
1678;DHT22;6034;46.864;15.216;2023-07-16T14:56:20;30.80;99.90
1678;DHT22;6034;46.864;15.216;2023-07-16T14:58:49;30.90;99.90
1678;DHT22;6034;46.864;15.216;2023-07-16T15:01:18;30.80;99.90
1678;DHT22;6034;46.864;15.216;2023-07-16T15:03:46;30.80;99.90
1678;DHT22;6034;46.864;15.216;2023-07-16T15:06:13;30.70;99.90
1678;DHT22;6034;46.864;15.216;2023-07-16T15:08:41;30.70;99.90
1678;DHT22;6034;46.864;15.216;2023-07-16T15:11:08;30.70;99.90
1678;DHT22;6034;46.864;15.216;2023-07-16T15:13:36;30.60;99.90
1678;DHT22;6034;46.864;15.216;2023-07-16T15:16:04;30.60;99.90
1678;DHT22;6034;46.864;15.216;2023-07-16T15:18:35;30.70;99.90
1678;DHT22;6034;46.864;15.216;2023-07-16T15:21:03;30.70;99.90
1678;DHT22;6034;46.864;15.216;2023-07-16T15:23:33;30.60;99.90
1678;DHT22;6034;46.864;15.216;2023-07-16T15:26:04;30.50;99.90
1678;DHT22;6034;46.864;15.216;2023-07-16T15:28:34;30.60;99.90
1678;DHT22;6034;46.864;15.216;2023-07-16T15:31:04;30.60;99.90
1678;DHT22;6034;46.864;15.216;2023-07-16T15:33:34;30.40;99.90
1678;DHT22;6034;46.864;15.216;2023-07-16T15:36:02;30.50;99.90
1678;DHT22;6034;46.864;15.216;2023-07-16T15:38:32;30.50;99.90
1678;DHT22;6034;46.864;15.216;2023-07-16T15:41:01;30.50;99.90
1678;DHT22;6034;46.864;15.216;2023-07-16T15:43:30;30.20;99.90
1678;DHT22;6034;46.864;15.216;2023-07-16T15:45:59;30.30;99.90
1678;DHT22;6034;46.864;15.216;2023-07-16T15:48:28;30.00;99.90
1678;DHT22;6034;46.864;15.216;2023-07-16T15:50:58;30.20;99.90
1678;DHT22;6034;46.864;15.216;2023-07-16T15:53:26;30.20;99.90
1678;DHT22;6034;46.864;15.216;2023-07-16T15:55:55;30.10;99.90
1678;DHT22;6034;46.864;15.216;2023-07-16T15:58:23;30.10;99.90
1678;DHT22;6034;46.864;15.216;2023-07-16T16:00:51;30.10;99.90
1678;DHT22;6034;46.864;15.216;2023-07-16T16:03:20;30.00;99.90
1678;DHT22;6034;46.864;15.216;2023-07-16T16:05:48;30.00;99.90
1678;DHT22;6034;46.864;15.216;2023-07-16T16:08:19;30.10;99.90
1678;DHT22;6034;46.864;15.216;2023-07-16T16:10:49;30.10;99.90
1678;DHT22;6034;46.864;15.216;2023-07-16T16:13:17;30.10;99.90
1678;DHT22;6034;46.864;15.216;2023-07-16T16:15:46;30.10;99.90
1678;DHT22;6034;46.864;15.216;2023-07-16T16:18:16;30.10;99.90
1678;DHT22;6034;46.864;15.216;2023-07-16T16:20:45;30.00;99.90
1678;DHT22;6034;46.864;15.216;2023-07-16T16:23:14;29.90;99.90
1678;DHT22;6034;46.864;15.216;2023-07-16T16:25:44;29.80;99.90
1678;DHT22;6034;46.864;15.216;2023-07-16T16:28:12;29.80;99.90
1678;DHT22;6034;46.864;15.216;2023-07-16T16:30:41;29.80;99.90
1678;DHT22;6034;46.864;15.216;2023-07-16T16:33:09;29.80;99.90
1678;DHT22;6034;46.864;15.216;2023-07-16T16:35:40;29.70;99.90
1678;DHT22;6034;46.864;15.216;2023-07-16T16:38:08;29.80;99.90
1678;DHT22;6034;46.864;15.216;2023-07-16T16:40:36;29.80;99.90
1678;DHT22;6034;46.864;15.216;2023-07-16T16:43:07;29.70;99.90
1678;DHT22;6034;46.864;15.216;2023-07-16T16:45:36;29.60;99.90
1678;DHT22;6034;46.864;15.216;2023-07-16T16:48:08;29.70;99.90
1678;DHT22;6034;46.864;15.216;2023-07-16T16:50:37;29.60;99.90
1678;DHT22;6034;46.864;15.216;2023-07-16T16:53:05;29.30;99.90
1678;DHT22;6034;46.864;15.216;2023-07-16T16:55:36;29.40;99.90
1678;DHT22;6034;46.864;15.216;2023-07-16T16:58:04;29.40;99.90
1678;DHT22;6034;46.864;15.216;2023-07-16T17:00:35;29.40;99.90
1678;DHT22;6034;46.864;15.216;2023-07-16T17:03:04;29.50;99.90
1678;DHT22;6034;46.864;15.216;2023-07-16T17:05:33;29.60;99.90
1678;DHT22;6034;46.864;15.216;2023-07-16T17:08:01;29.50;99.90
1678;DHT22;6034;46.864;15.216;2023-07-16T17:10:30;29.50;99.90
1678;DHT22;6034;46.864;15.216;2023-07-16T17:12:59;29.50;99.90
1678;DHT22;6034;46.864;15.216;2023-07-16T17:15:27;29.30;99.90
1678;DHT22;6034;46.864;15.216;2023-07-16T17:17:56;29.30;99.90
1678;DHT22;6034;46.864;15.216;2023-07-16T17:20:24;29.30;99.90
1678;DHT22;6034;46.864;15.216;2023-07-16T17:22:51;29.30;99.90
1678;DHT22;6034;46.864;15.216;2023-07-16T17:25:19;29.30;99.90
1678;DHT22;6034;46.864;15.216;2023-07-16T17:27:46;29.30;99.90
1678;DHT22;6034;46.864;15.216;2023-07-16T17:30:14;29.30;99.90
1678;DHT22;6034;46.864;15.216;2023-07-16T17:32:42;29.30;99.90
1678;DHT22;6034;46.864;15.216;2023-07-16T17:35:12;29.10;99.90
1678;DHT22;6034;46.864;15.216;2023-07-16T17:37:40;29.10;99.90
1678;DHT22;6034;46.864;15.216;2023-07-16T17:40:09;29.10;99.90
1678;DHT22;6034;46.864;15.216;2023-07-16T17:42:38;29.00;99.90
1678;DHT22;6034;46.864;15.216;2023-07-16T17:45:06;28.90;99.90
1678;DHT22;6034;46.864;15.216;2023-07-16T17:47:34;28.90;99.90
1678;DHT22;6034;46.864;15.216;2023-07-16T17:50:02;29.00;99.90
1678;DHT22;6034;46.864;15.216;2023-07-16T17:52:32;28.90;99.90
1678;DHT22;6034;46.864;15.216;2023-07-16T17:55:00;28.90;99.90
1678;DHT22;6034;46.864;15.216;2023-07-16T17:57:27;28.90;99.90
1678;DHT22;6034;46.864;15.216;2023-07-16T17:59:54;28.80;99.90
1678;DHT22;6034;46.864;15.216;2023-07-16T18:02:22;28.70;99.90
1678;DHT22;6034;46.864;15.216;2023-07-16T18:04:50;28.60;99.90
1678;DHT22;6034;46.864;15.216;2023-07-16T18:07:21;28.50;99.90
1678;DHT22;6034;46.864;15.216;2023-07-16T18:09:50;28.50;99.90
1678;DHT22;6034;46.864;15.216;2023-07-16T18:12:19;28.50;99.90
1678;DHT22;6034;46.864;15.216;2023-07-16T18:14:48;28.30;99.90
1678;DHT22;6034;46.864;15.216;2023-07-16T18:17:17;28.30;99.90
1678;DHT22;6034;46.864;15.216;2023-07-16T18:19:45;28.30;99.90
1678;DHT22;6034;46.864;15.216;2023-07-16T18:22:16;28.30;99.90
1678;DHT22;6034;46.864;15.216;2023-07-16T18:24:46;28.20;99.90
1678;DHT22;6034;46.864;15.216;2023-07-16T18:27:16;28.20;99.90
1678;DHT22;6034;46.864;15.216;2023-07-16T18:29:45;28.10;99.90
1678;DHT22;6034;46.864;15.216;2023-07-16T18:32:15;28.00;99.90
1678;DHT22;6034;46.864;15.216;2023-07-16T18:34:43;28.10;99.90
1678;DHT22;6034;46.864;15.216;2023-07-16T18:37:11;27.90;99.90
1678;DHT22;6034;46.864;15.216;2023-07-16T18:39:40;27.90;99.90
1678;DHT22;6034;46.864;15.216;2023-07-16T18:42:09;27.90;99.90
1678;DHT22;6034;46.864;15.216;2023-07-16T18:44:39;27.90;99.90
1678;DHT22;6034;46.864;15.216;2023-07-16T18:47:07;27.90;99.90
1678;DHT22;6034;46.864;15.216;2023-07-16T18:49:36;27.80;99.90
1678;DHT22;6034;46.864;15.216;2023-07-16T18:52:07;27.80;99.90
1678;DHT22;6034;46.864;15.216;2023-07-16T18:54:35;27.70;99.90
1678;DHT22;6034;46.864;15.216;2023-07-16T18:57:03;27.80;99.90
1678;DHT22;6034;46.864;15.216;2023-07-16T18:59:32;27.70;99.90
1678;DHT22;6034;46.864;15.216;2023-07-16T19:02:02;27.70;99.90
1678;DHT22;6034;46.864;15.216;2023-07-16T19:04:31;27.50;99.90
1678;DHT22;6034;46.864;15.216;2023-07-16T19:07:00;27.50;99.90
1678;DHT22;6034;46.864;15.216;2023-07-16T19:09:29;27.50;99.90
1678;DHT22;6034;46.864;15.216;2023-07-16T19:11:57;27.60;99.90
1678;DHT22;6034;46.864;15.216;2023-07-16T19:14:27;27.50;99.90
1678;DHT22;6034;46.864;15.216;2023-07-16T19:16:55;27.50;99.90
1678;DHT22;6034;46.864;15.216;2023-07-16T19:19:25;27.40;99.90
1678;DHT22;6034;46.864;15.216;2023-07-16T19:21:54;27.30;99.90
1678;DHT22;6034;46.864;15.216;2023-07-16T19:24:22;27.20;99.90
1678;DHT22;6034;46.864;15.216;2023-07-16T19:26:50;27.20;99.90
1678;DHT22;6034;46.864;15.216;2023-07-16T19:29:18;27.20;99.90
1678;DHT22;6034;46.864;15.216;2023-07-16T19:31:46;27.30;99.90
1678;DHT22;6034;46.864;15.216;2023-07-16T19:34:14;27.30;99.90
1678;DHT22;6034;46.864;15.216;2023-07-16T19:36:44;27.20;99.90
1678;DHT22;6034;46.864;15.216;2023-07-16T19:39:13;27.20;99.90
1678;DHT22;6034;46.864;15.216;2023-07-16T19:41:41;27.20;99.90
1678;DHT22;6034;46.864;15.216;2023-07-16T19:44:09;27.20;99.90
1678;DHT22;6034;46.864;15.216;2023-07-16T19:46:38;27.20;99.90
1678;DHT22;6034;46.864;15.216;2023-07-16T19:49:06;27.00;99.90
1678;DHT22;6034;46.864;15.216;2023-07-16T19:51:34;27.00;99.90
1678;DHT22;6034;46.864;15.216;2023-07-16T19:54:03;27.00;99.90
1678;DHT22;6034;46.864;15.216;2023-07-16T19:56:31;27.00;99.90
1678;DHT22;6034;46.864;15.216;2023-07-16T19:59:00;27.00;99.90
1678;DHT22;6034;46.864;15.216;2023-07-16T20:01:29;27.00;99.90
1678;DHT22;6034;46.864;15.216;2023-07-16T20:03:59;26.90;99.90
1678;DHT22;6034;46.864;15.216;2023-07-16T20:06:26;26.90;99.90
1678;DHT22;6034;46.864;15.216;2023-07-16T20:08:55;26.90;99.90
1678;DHT22;6034;46.864;15.216;2023-07-16T20:11:26;26.90;99.90
1678;DHT22;6034;46.864;15.216;2023-07-16T20:13:55;26.90;99.90
1678;DHT22;6034;46.864;15.216;2023-07-16T20:16:23;26.80;99.90
1678;DHT22;6034;46.864;15.216;2023-07-16T20:18:56;26.80;99.90
1678;DHT22;6034;46.864;15.216;2023-07-16T20:21:26;26.80;99.90
1678;DHT22;6034;46.864;15.216;2023-07-16T20:23:55;26.70;99.90
1678;DHT22;6034;46.864;15.216;2023-07-16T20:26:27;26.70;99.90
1678;DHT22;6034;46.864;15.216;2023-07-16T20:28:57;26.70;99.90
1678;DHT22;6034;46.864;15.216;2023-07-16T20:31:26;26.70;99.90
1678;DHT22;6034;46.864;15.216;2023-07-16T20:33:56;26.70;99.90
1678;DHT22;6034;46.864;15.216;2023-07-16T20:36:24;26.60;99.90
1678;DHT22;6034;46.864;15.216;2023-07-16T20:38:52;26.60;99.90
1678;DHT22;6034;46.864;15.216;2023-07-16T20:41:21;26.70;99.90
1678;DHT22;6034;46.864;15.216;2023-07-16T20:43:52;26.70;99.90
1678;DHT22;6034;46.864;15.216;2023-07-16T20:46:20;26.70;99.90
1678;DHT22;6034;46.864;15.216;2023-07-16T20:48:48;26.70;99.90
1678;DHT22;6034;46.864;15.216;2023-07-16T20:51:17;26.70;99.90
1678;DHT22;6034;46.864;15.216;2023-07-16T20:53:46;26.60;99.90
1678;DHT22;6034;46.864;15.216;2023-07-16T20:56:14;26.60;99.90
1678;DHT22;6034;46.864;15.216;2023-07-16T20:58:42;26.60;99.90
